createdAt,value
2023-03-27T00:02:23.326Z,7.97
2023-03-27T00:04:50.824Z,10.50
2023-03-27T00:07:20.023Z,10.50
2023-03-27T00:09:47.316Z,7.70
2023-03-27T00:12:14.819Z,8.30
2023-03-27T00:14:42.032Z,5.95
2023-03-27T00:17:11.095Z,4.55
2023-03-27T00:19:38.747Z,9.80
2023-03-27T00:22:06.236Z,10.23
2023-03-27T00:24:34.428Z,9.40
2023-03-27T00:27:01.668Z,8.23
2023-03-27T00:29:29.357Z,5.95
2023-03-27T00:31:56.643Z,6.07
2023-03-27T00:34:23.827Z,9.55
2023-03-27T00:36:53.925Z,7.95
2023-03-27T00:39:21.150Z,5.47
2023-03-27T00:41:49.061Z,5.05
2023-03-27T00:44:25.905Z,7.22
2023-03-27T00:46:55.432Z,3.80
2023-03-27T00:49:25.145Z,5.75
2023-03-27T00:51:53.868Z,7.40
2023-03-27T00:54:30.181Z,3.92
2023-03-27T00:57:01.556Z,3.80
2023-03-27T00:59:32.308Z,5.82
2023-03-27T01:02:02.636Z,7.57
2023-03-27T01:04:31.432Z,3.65
2023-03-27T01:07:00.215Z,6.05
2023-03-27T01:09:27.905Z,5.18
2023-03-27T01:12:19.845Z,6.22
2023-03-27T01:14:59.794Z,3.63
2023-03-27T01:17:50.339Z,7.18
2023-03-27T01:20:18.084Z,4.40
2023-03-27T01:23:00.900Z,5.47
2023-03-27T01:25:45.778Z,9.43
2023-03-27T01:28:34.598Z,12.43
2023-03-27T01:31:21.318Z,8.00
2023-03-27T01:34:15.350Z,5.82
2023-03-27T01:36:52.038Z,7.13
2023-03-27T01:39:19.260Z,3.42
2023-03-27T01:42:04.225Z,7.75
2023-03-27T01:44:44.896Z,15.10
2023-03-27T01:47:28.361Z,7.50
2023-03-27T01:50:11.255Z,8.90
2023-03-27T01:52:44.560Z,7.72
2023-03-27T01:55:19.375Z,5.75
2023-03-27T01:58:00.656Z,2.95
2023-03-27T02:01:04.023Z,5.10
2023-03-27T02:03:23.001Z,4.07
2023-03-27T02:06:03.436Z,6.50
2023-03-27T02:11:26.780Z,7.70
2023-03-27T02:14:11.813Z,8.05
2023-03-27T02:16:46.302Z,4.78
2023-03-27T02:19:20.248Z,5.97
2023-03-27T02:21:48.251Z,4.90
2023-03-27T02:24:19.526Z,4.25
2023-03-27T02:26:53.454Z,4.38
2023-03-27T02:29:52.309Z,7.70
2023-03-27T02:32:56.647Z,4.05
2023-03-27T02:35:40.984Z,3.28
2023-03-27T02:38:23.724Z,3.53
2023-03-27T02:40:57.565Z,6.18
2023-03-27T02:44:11.183Z,4.60
2023-03-27T02:47:07.706Z,2.67
2023-03-27T02:49:51.484Z,6.45
2023-03-27T02:52:26.713Z,4.35
2023-03-27T02:55:06.572Z,5.15
2023-03-27T02:57:41.924Z,2.95
2023-03-27T03:00:45.085Z,4.68
2023-03-27T03:03:44.636Z,5.05
2023-03-27T03:06:32.116Z,5.40
2023-03-27T03:09:04.657Z,6.90
2023-03-27T03:11:37.689Z,8.00
2023-03-27T03:14:12.737Z,4.63
2023-03-27T03:16:40.262Z,3.08
2023-03-27T03:19:07.807Z,5.95
2023-03-27T03:21:36.658Z,6.45
2023-03-27T03:24:04.177Z,16.42
2023-03-27T03:26:32.222Z,10.55
2023-03-27T03:29:01.688Z,7.65
2023-03-27T03:31:44.282Z,5.82
2023-03-27T03:34:16.704Z,5.57
2023-03-27T03:36:49.384Z,9.20
2023-03-27T03:39:22.335Z,5.18
2023-03-27T03:41:50.795Z,3.72
2023-03-27T03:44:19.218Z,5.15
2023-03-27T03:46:46.669Z,5.68
2023-03-27T03:49:20.396Z,5.63
2023-03-27T03:51:47.984Z,6.10
2023-03-27T03:54:31.669Z,13.88
2023-03-27T03:57:00.162Z,9.90
2023-03-27T03:59:27.705Z,7.18
2023-03-27T04:02:30.207Z,6.72
2023-03-27T04:05:08.616Z,7.55
2023-03-27T04:07:37.264Z,8.95
2023-03-27T04:10:19.592Z,8.77
2023-03-27T04:12:48.526Z,8.15
2023-03-27T04:15:30.266Z,9.07
2023-03-27T04:18:14.985Z,11.77
2023-03-27T04:20:42.642Z,9.68
2023-03-27T04:23:13.962Z,10.13
2023-03-27T04:25:41.470Z,9.10
2023-03-27T04:28:16.419Z,11.57
2023-03-27T04:30:50.357Z,14.32
2023-03-27T04:33:46.839Z,3.88
2023-03-27T04:39:10.758Z,6.32
2023-03-27T04:41:38.738Z,7.47
2023-03-27T04:44:06.416Z,10.18
2023-03-27T04:46:34.495Z,11.90
2023-03-27T04:49:07.663Z,8.13
2023-03-27T04:51:49.215Z,11.05
2023-03-27T04:54:18.895Z,8.35
2023-03-27T04:56:47.173Z,6.03
2023-03-27T04:59:18.583Z,5.65
2023-03-27T05:01:57.659Z,4.88
2023-03-27T05:04:46.026Z,4.75
2023-03-27T05:07:21.387Z,4.03
2023-03-27T05:09:49.008Z,2.97
2023-03-27T05:12:16.553Z,4.22
2023-03-27T05:14:53.053Z,3.58
2023-03-27T05:17:45.031Z,3.90
2023-03-27T05:20:17.013Z,7.22
2023-03-27T05:22:44.976Z,7.38
2023-03-27T05:25:27.561Z,5.78
2023-03-27T05:27:56.047Z,6.80
2023-03-27T05:33:14.633Z,3.97
2023-03-27T05:35:42.990Z,8.05
2023-03-27T05:38:12.467Z,5.03
2023-03-27T05:41:06.508Z,10.63
2023-03-27T05:43:38.822Z,5.78
2023-03-27T05:46:06.512Z,2.90
2023-03-27T05:48:34.860Z,4.28
2023-03-27T05:51:06.069Z,4.13
2023-03-27T05:53:37.031Z,3.80
2023-03-27T05:56:18.376Z,2.65
2023-03-27T05:58:58.203Z,2.33
2023-03-27T06:01:26.922Z,2.22
2023-03-27T06:03:56.910Z,3.30
2023-03-27T06:06:29.623Z,5.55
2023-03-27T06:08:59.465Z,1.92
2023-03-27T06:11:44.943Z,4.70
2023-03-27T06:14:12.267Z,7.70
2023-03-27T06:17:01.159Z,6.43
2023-03-27T06:19:45.397Z,8.13
2023-03-27T06:22:12.931Z,3.97
2023-03-27T06:24:41.611Z,4.75
2023-03-27T06:27:10.993Z,5.22
2023-03-27T06:29:41.770Z,9.15
2023-03-27T06:32:09.695Z,8.57
2023-03-27T06:34:47.760Z,6.50
2023-03-27T06:37:55.531Z,9.55
2023-03-27T06:40:28.237Z,11.07
2023-03-27T06:43:10.105Z,4.57
2023-03-27T06:45:50.951Z,6.28
2023-03-27T06:48:33.151Z,3.92
2023-03-27T06:51:03.552Z,9.35
2023-03-27T06:53:35.534Z,7.90
2023-03-27T06:56:05.331Z,7.50
2023-03-27T06:58:52.614Z,8.50
2023-03-27T07:01:25.967Z,8.70
2023-03-27T07:04:22.557Z,6.13
2023-03-27T07:07:08.562Z,10.50
2023-03-27T07:12:11.787Z,11.80
2023-03-27T07:14:41.142Z,7.35
2023-03-27T07:17:09.556Z,6.72
2023-03-27T07:19:49.195Z,6.10
2023-03-27T07:22:18.391Z,9.00
2023-03-27T07:24:45.753Z,8.32
2023-03-27T07:27:12.990Z,11.65
2023-03-27T07:29:41.652Z,5.57
2023-03-27T07:32:11.137Z,8.18
2023-03-27T07:34:42.451Z,7.53
2023-03-27T07:37:14.515Z,4.55
2023-03-27T07:39:59.039Z,3.63
2023-03-27T07:42:28.261Z,2.88
2023-03-27T07:45:04.322Z,2.30
2023-03-27T07:47:32.244Z,2.72
2023-03-27T07:49:59.828Z,3.60
2023-03-27T07:52:27.423Z,3.20
2023-03-27T07:54:59.617Z,4.72
2023-03-27T07:57:59.321Z,4.72
2023-03-27T08:00:32.546Z,9.40
2023-03-27T08:03:11.053Z,6.35
2023-03-27T08:05:46.221Z,5.40
2023-03-27T08:08:16.976Z,8.18
2023-03-27T08:10:48.224Z,4.32
2023-03-27T08:13:18.385Z,6.97
2023-03-27T08:15:46.095Z,5.60
2023-03-27T08:18:25.506Z,4.70
2023-03-27T08:20:58.467Z,5.80
2023-03-27T08:23:31.330Z,3.28
2023-03-27T08:26:16.912Z,9.38
2023-03-27T08:28:54.107Z,5.60
2023-03-27T08:31:24.182Z,8.30
2023-03-27T08:33:53.987Z,5.50
2023-03-27T08:36:25.619Z,6.32
2023-03-27T08:38:55.399Z,8.05
2023-03-27T08:41:42.496Z,6.15
2023-03-27T08:44:19.931Z,8.27
2023-03-27T08:46:56.179Z,4.05
2023-03-27T08:49:29.961Z,4.97
2023-03-27T08:52:33.134Z,5.72
2023-03-27T08:55:18.767Z,3.22
2023-03-27T08:57:56.446Z,5.82
2023-03-27T09:00:33.717Z,1.88
2023-03-27T09:03:27.896Z,6.85
2023-03-27T09:06:10.414Z,7.05
2023-03-27T09:08:50.563Z,8.90
2023-03-27T09:11:27.921Z,5.53
2023-03-27T09:14:10.466Z,3.85
2023-03-27T09:16:49.684Z,1.52
2023-03-27T09:19:49.331Z,3.65
2023-03-27T09:22:25.852Z,3.90
2023-03-27T09:25:19.921Z,5.28
2023-03-27T09:27:49.793Z,7.53
2023-03-27T09:30:41.046Z,4.30
2023-03-27T09:33:14.644Z,8.20
2023-03-27T09:35:44.713Z,4.75
2023-03-27T09:38:24.570Z,3.50
2023-03-27T09:41:01.624Z,6.28
2023-03-27T09:43:46.005Z,4.28
2023-03-27T09:46:19.434Z,1.95
2023-03-27T09:49:20.149Z,7.43
2023-03-27T09:51:59.550Z,4.53
2023-03-27T09:54:59.605Z,5.95
2023-03-27T09:57:37.422Z,6.68
2023-03-27T10:00:25.060Z,7.22
2023-03-27T10:03:01.575Z,4.38
2023-03-27T10:05:31.607Z,7.38
2023-03-27T10:07:59.816Z,2.42
2023-03-27T10:10:55.119Z,7.45
2023-03-27T10:13:43.871Z,3.28
2023-03-27T10:16:11.487Z,5.28
2023-03-27T10:18:53.621Z,3.42
2023-03-27T10:21:40.096Z,4.60
2023-03-27T10:24:21.138Z,5.20
2023-03-27T10:27:18.982Z,4.78
2023-03-27T10:30:33.138Z,10.63
2023-03-27T10:33:36.795Z,3.83
2023-03-27T10:36:27.706Z,6.90
2023-03-27T10:39:00.987Z,6.15
2023-03-27T10:41:41.239Z,4.93
2023-03-27T10:44:17.978Z,7.78
2023-03-27T10:46:52.847Z,5.65
2023-03-27T10:49:30.328Z,7.15
2023-03-27T10:52:15.296Z,3.28
2023-03-27T10:55:00.929Z,4.25
2023-03-27T10:57:31.075Z,3.55
2023-03-27T11:00:22.619Z,10.10
2023-03-27T11:03:23.967Z,9.20
2023-03-27T11:06:00.769Z,7.85
2023-03-27T11:08:42.847Z,4.03
2023-03-27T11:11:23.164Z,5.35
2023-03-27T11:13:54.291Z,4.10
2023-03-27T11:16:43.592Z,4.63
2023-03-27T11:19:49.841Z,5.65
2023-03-27T11:22:44.627Z,5.25
2023-03-27T11:25:27.118Z,5.43
2023-03-27T11:28:18.450Z,7.88
2023-03-27T11:30:53.154Z,4.85
2023-03-27T11:33:37.849Z,3.42
2023-03-27T11:36:17.673Z,5.22
2023-03-27T11:39:13.648Z,5.55
2023-03-27T11:41:51.565Z,6.15
2023-03-27T11:44:20.304Z,3.85
2023-03-27T11:47:37.415Z,6.03
2023-03-27T11:50:23.328Z,12.55
2023-03-27T11:53:19.786Z,7.35
2023-03-27T11:56:24.782Z,3.92
2023-03-27T11:59:37.826Z,5.47
2023-03-27T12:02:17.968Z,9.55
2023-03-27T12:05:00.679Z,4.65
2023-03-27T12:08:05.029Z,2.53
2023-03-27T12:10:37.569Z,11.00
2023-03-27T12:14:01.229Z,8.82
2023-03-27T12:17:02.234Z,7.05
2023-03-27T12:20:06.882Z,4.65
2023-03-27T12:23:17.060Z,5.55
2023-03-27T12:26:31.190Z,2.97
2023-03-27T12:29:58.205Z,10.10
2023-03-27T12:32:47.809Z,6.07
2023-03-27T12:35:23.307Z,4.60
2023-03-27T12:37:59.751Z,3.70
2023-03-27T12:40:37.617Z,5.20
2023-03-27T12:43:11.078Z,8.30
2023-03-27T12:45:50.951Z,8.65
2023-03-27T12:48:21.248Z,5.97
2023-03-27T12:50:55.368Z,5.93
2023-03-27T12:53:26.644Z,4.75
2023-03-27T12:56:16.427Z,8.13
2023-03-27T12:58:51.162Z,8.20
2023-03-27T13:01:51.572Z,6.65
2023-03-27T13:04:40.384Z,9.20
2023-03-27T13:07:35.965Z,5.65
2023-03-27T13:10:12.999Z,8.90
2023-03-27T13:13:15.813Z,9.13
2023-03-27T13:15:52.759Z,3.80
2023-03-27T13:19:00.914Z,5.50
2023-03-27T13:21:31.531Z,5.65
2023-03-27T13:24:32.970Z,9.55
2023-03-27T13:27:44.000Z,7.18
2023-03-27T13:30:48.398Z,2.63
2023-03-27T13:33:39.971Z,4.15
2023-03-27T13:36:13.425Z,8.07
2023-03-27T13:39:04.603Z,6.70
2023-03-27T13:41:44.405Z,3.22
2023-03-27T13:44:28.457Z,2.38
2023-03-27T13:47:28.264Z,2.80
2023-03-27T13:50:35.172Z,7.07
2023-03-27T13:53:12.732Z,6.28
2023-03-27T13:56:32.500Z,7.72
2023-03-27T13:59:46.776Z,8.07
2023-03-27T14:02:58.377Z,4.53
2023-03-27T14:05:57.127Z,6.78
2023-03-27T14:08:42.124Z,5.28
2023-03-27T14:11:38.769Z,9.02
2023-03-27T14:14:33.097Z,4.40
2023-03-27T14:17:37.994Z,8.80
2023-03-27T14:20:24.054Z,8.30
2023-03-27T14:23:00.895Z,9.00
2023-03-27T14:25:40.434Z,9.38
2023-03-27T14:28:45.551Z,5.32
2023-03-27T14:31:19.177Z,4.55
2023-03-27T14:34:09.841Z,4.88
2023-03-27T14:36:44.300Z,9.48
2023-03-27T14:39:22.124Z,3.20
2023-03-27T14:41:58.326Z,8.38
2023-03-27T14:44:31.408Z,5.97
2023-03-27T14:47:12.235Z,4.65
2023-03-27T14:49:49.250Z,8.80
2023-03-27T14:52:35.411Z,5.68
2023-03-27T14:55:34.633Z,5.10
2023-03-27T14:58:25.702Z,4.63
2023-03-27T15:01:00.014Z,8.25
2023-03-27T15:03:34.855Z,7.18
2023-03-27T15:06:13.586Z,9.50
2023-03-27T15:08:52.293Z,9.90
2023-03-27T15:11:40.317Z,5.97
2023-03-27T15:14:25.956Z,8.15
2023-03-27T15:17:15.179Z,5.70
2023-03-27T15:19:49.601Z,6.57
2023-03-27T15:22:34.269Z,4.82
2023-03-27T15:25:11.683Z,4.72
2023-03-27T15:27:46.585Z,4.78
2023-03-27T15:30:51.518Z,10.25
2023-03-27T15:34:03.465Z,8.13
2023-03-27T15:36:34.337Z,5.88
2023-03-27T15:39:04.199Z,6.30
2023-03-27T15:41:38.385Z,4.57
2023-03-27T15:44:11.328Z,8.63
2023-03-27T15:46:55.330Z,6.47
2023-03-27T15:49:29.711Z,7.20
2023-03-27T15:51:58.975Z,12.20
2023-03-27T15:54:37.250Z,11.88
2023-03-27T15:57:14.600Z,9.75
2023-03-27T15:59:52.971Z,4.93
2023-03-27T16:02:24.540Z,6.32
2023-03-27T16:04:55.526Z,8.07
2023-03-27T16:07:30.229Z,3.97
2023-03-27T16:10:03.079Z,8.30
2023-03-27T16:12:49.524Z,8.30
2023-03-27T16:15:37.896Z,6.57
2023-03-27T16:18:22.910Z,5.60
2023-03-27T16:20:50.461Z,6.47
2023-03-27T16:23:17.799Z,7.32
2023-03-27T16:25:45.343Z,8.63
2023-03-27T16:28:16.729Z,4.97
2023-03-27T16:30:45.851Z,7.68
2023-03-27T16:33:16.254Z,7.57
2023-03-27T16:35:45.650Z,11.43
2023-03-27T16:38:16.659Z,9.60
2023-03-27T16:40:44.764Z,6.00
2023-03-27T16:43:12.511Z,9.23
2023-03-27T16:45:40.083Z,6.47
2023-03-27T16:48:08.705Z,10.35
2023-03-27T16:50:36.611Z,9.20
2023-03-27T16:53:04.522Z,6.93
2023-03-27T16:55:31.880Z,10.95
2023-03-27T16:57:59.518Z,9.10
2023-03-27T17:00:27.661Z,11.90
2023-03-27T17:02:54.953Z,15.30
2023-03-27T17:05:22.374Z,14.38
2023-03-27T17:07:49.790Z,9.38
2023-03-27T17:10:17.348Z,9.70
2023-03-27T17:12:44.594Z,8.60
2023-03-27T17:15:11.904Z,15.30
2023-03-27T17:17:39.973Z,7.80
2023-03-27T17:20:08.041Z,5.40
2023-03-27T17:22:35.693Z,11.35
2023-03-27T17:25:05.659Z,14.55
2023-03-27T17:27:33.884Z,12.45
2023-03-27T17:30:03.930Z,14.07
2023-03-27T17:32:31.595Z,14.80
2023-03-27T17:34:59.105Z,13.15
2023-03-27T17:37:27.289Z,17.02
2023-03-27T17:39:54.603Z,10.48
2023-03-27T17:42:22.187Z,15.45
2023-03-27T17:44:49.406Z,14.30
2023-03-27T17:47:16.701Z,6.93
2023-03-27T17:49:45.085Z,11.15
2023-03-27T17:52:13.940Z,20.80
2023-03-27T17:54:41.648Z,14.77
2023-03-27T17:57:09.258Z,14.70
2023-03-27T17:59:48.678Z,9.23
2023-03-27T18:02:21.570Z,16.83
2023-03-27T18:04:52.150Z,16.60
2023-03-27T18:07:20.943Z,11.57
2023-03-27T18:09:49.285Z,10.88
2023-03-27T18:12:19.522Z,11.93
2023-03-27T18:14:46.871Z,16.88
2023-03-27T18:17:15.987Z,11.48
2023-03-27T18:19:43.315Z,13.15
2023-03-27T18:22:11.359Z,8.30
2023-03-27T18:24:38.740Z,19.33
2023-03-27T18:27:06.076Z,13.80
2023-03-27T18:29:34.437Z,19.58
2023-03-27T18:32:01.730Z,17.23
2023-03-27T18:34:29.020Z,6.43
2023-03-27T18:36:56.867Z,10.57
2023-03-27T18:39:24.616Z,12.40
2023-03-27T18:41:53.292Z,13.52
2023-03-27T18:44:21.569Z,9.88
2023-03-27T18:46:48.835Z,7.30
2023-03-27T18:49:24.886Z,9.80
2023-03-27T18:51:52.901Z,18.23
2023-03-27T18:54:20.419Z,11.60
2023-03-27T18:56:48.762Z,8.65
2023-03-27T18:59:16.188Z,11.77
2023-03-27T19:01:44.184Z,22.75
2023-03-27T19:04:11.692Z,9.43
2023-03-27T19:06:39.226Z,18.33
2023-03-27T19:09:06.583Z,19.70
2023-03-27T19:11:33.980Z,13.48
2023-03-27T19:14:08.025Z,14.95
2023-03-27T19:16:44.373Z,10.90
2023-03-27T19:19:12.306Z,11.07
2023-03-27T19:21:52.115Z,9.98
2023-03-27T19:24:45.709Z,12.63
2023-03-27T19:27:23.664Z,17.02
2023-03-27T19:29:53.406Z,11.30
2023-03-27T19:32:21.440Z,19.67
2023-03-27T19:34:48.979Z,9.65
2023-03-27T19:37:16.925Z,9.70
2023-03-27T19:39:44.187Z,11.45
2023-03-27T19:42:11.652Z,16.98
2023-03-27T19:44:39.753Z,13.45
2023-03-27T19:47:07.703Z,23.98
2023-03-27T19:49:40.719Z,18.60
2023-03-27T19:52:27.804Z,16.25
2023-03-27T19:54:55.380Z,16.30
2023-03-27T19:57:25.092Z,10.52
2023-03-27T19:59:55.301Z,12.75
2023-03-27T20:02:22.580Z,12.48
2023-03-27T20:04:50.031Z,12.40
2023-03-27T20:07:17.546Z,11.40
2023-03-27T20:09:45.186Z,7.38
2023-03-27T20:12:12.688Z,8.30
2023-03-27T20:14:41.117Z,7.57
2023-03-27T20:17:21.336Z,8.68
2023-03-27T20:19:55.735Z,11.38
2023-03-27T20:22:23.176Z,12.68
2023-03-27T20:24:50.424Z,9.63
2023-03-27T20:27:19.957Z,7.53
2023-03-27T20:29:47.880Z,10.50
2023-03-27T20:32:15.345Z,11.20
2023-03-27T20:34:42.913Z,12.50
2023-03-27T20:37:12.120Z,11.80
2023-03-27T20:39:47.986Z,16.80
2023-03-27T20:42:18.140Z,11.88
2023-03-27T20:44:47.251Z,11.90
2023-03-27T20:47:15.271Z,13.85
2023-03-27T20:49:49.595Z,16.45
2023-03-27T20:52:19.044Z,11.60
2023-03-27T20:54:47.991Z,15.80
2023-03-27T20:57:17.854Z,17.38
2023-03-27T20:59:47.550Z,18.58
2023-03-27T21:02:18.874Z,18.35
2023-03-27T21:07:15.817Z,18.00
2023-03-27T21:09:45.481Z,12.32
2023-03-27T21:12:13.109Z,14.80
2023-03-27T21:14:40.364Z,12.00
2023-03-27T21:17:07.702Z,13.45
2023-03-27T21:19:34.904Z,11.50
2023-03-27T21:22:03.794Z,14.75
2023-03-27T21:24:31.198Z,12.52
2023-03-27T21:27:00.053Z,13.70
2023-03-27T21:29:27.512Z,11.88
2023-03-27T21:31:54.868Z,10.13
2023-03-27T21:34:22.616Z,11.98
2023-03-27T21:36:49.851Z,8.23
2023-03-27T21:39:17.481Z,10.25
2023-03-27T21:41:44.746Z,16.13
2023-03-27T21:44:12.260Z,14.27
2023-03-27T21:46:39.760Z,12.25
2023-03-27T21:49:07.080Z,12.15
2023-03-27T21:51:34.319Z,7.75
2023-03-27T21:54:01.715Z,15.55
2023-03-27T21:56:28.972Z,16.20
2023-03-27T21:58:57.529Z,13.98
2023-03-27T22:01:26.106Z,15.02
2023-03-27T22:03:53.579Z,13.15
2023-03-27T22:06:21.025Z,16.00
2023-03-27T22:08:48.208Z,17.75
2023-03-27T22:11:15.511Z,9.38
2023-03-27T22:13:43.858Z,13.23
2023-03-27T22:16:14.570Z,18.60
2023-03-27T22:21:18.654Z,9.60
2023-03-27T22:23:46.223Z,15.95
2023-03-27T22:26:13.534Z,12.27
2023-03-27T22:28:40.813Z,26.30
2023-03-27T22:31:08.690Z,9.80
2023-03-27T22:33:37.132Z,10.85
2023-03-27T22:36:05.998Z,11.98
2023-03-27T22:38:33.620Z,12.50
2023-03-27T22:41:01.494Z,11.82
2023-03-27T22:43:29.473Z,23.27
2023-03-27T22:45:57.654Z,17.35
2023-03-27T22:48:25.261Z,16.20
2023-03-27T22:50:56.602Z,24.35
2023-03-27T22:53:25.251Z,16.73
2023-03-27T22:55:54.919Z,23.73
2023-03-27T22:58:23.574Z,9.05
2023-03-27T23:00:52.928Z,25.10
2023-03-27T23:03:21.331Z,15.15
2023-03-27T23:05:50.331Z,17.75
2023-03-27T23:08:19.906Z,14.93
2023-03-27T23:10:55.397Z,20.45
2023-03-27T23:13:23.455Z,17.75
2023-03-27T23:15:51.864Z,20.58
2023-03-27T23:18:24.876Z,14.40
2023-03-27T23:20:57.351Z,13.23
2023-03-27T23:23:26.482Z,10.35
2023-03-27T23:25:54.901Z,10.52
2023-03-27T23:28:22.224Z,12.68
2023-03-27T23:30:59.201Z,13.25
2023-03-27T23:33:27.780Z,11.98
2023-03-27T23:36:06.682Z,11.77
2023-03-27T23:38:34.499Z,10.55
2023-03-27T23:41:03.278Z,12.07
2023-03-27T23:43:31.301Z,9.63
2023-03-27T23:45:59.684Z,8.82
2023-03-27T23:48:31.076Z,10.18
2023-03-27T23:50:58.388Z,16.90
2023-03-27T23:53:27.457Z,11.10
2023-03-27T23:55:57.050Z,15.32
2023-03-27T23:58:28.650Z,12.57
